SHGR weather

Public forecast

Using degrees Celsius for public forecast. Weather courtesy of forecast.io.

Closest aviation weather report (METAR) to Edificio Corpgroup Heliport

Report is more than 6 hours old.

Closest report is Eulogio Sánchez Airport, 3.4 nm (6.3 km) SSE. Retrieved 2020/08/14 22:00 UTC (10 hours ago):

SCTB 142200Z 00000KT 8000 FEW080 12/02 Q1020

Closest aviation forecast (TAF) to Edificio Corpgroup Heliport

Closest forecast is Comodoro Arturo Merino Benítez International Airport, 10.7 nm (19.8 km) W. Retrieved 2020/08/15 06:00 UTC (2 hours ago):

TAF SCEL 150415Z 1506/1606 VRB02KT 7000 FEW035 TX15/1519Z TN01/1511Z BECMG 1507/1509 VRB02KT 5000 BR TEMPO 1509/1512 0800 BCFG SCT002 BECMG 1513/1515 17006KT 8000 NSC BECMG 1516/1518 CAVOK